Terminal Aerodrome Forecast
Issued by NWS Grand Forks, ND

Home | Current Version | Previous Version | Graphics & Text | Print | Product List | Glossary Off
Versions: 1 2 3 4 5 6 7 8 9 10 11 12 13 14 15 16 17 18 19 20 21 22 23

000
FTUS43 KFGF 202300
TAFFAR
TAF
KFAR 202326Z 2100/2124 16012KT P6SM BKN250
     FM210400 12009KT P6SM BKN100
     FM210600 12007KT P6SM VCTS BKN060CB
     FM210800 13007KT 5SM -TSRA BKN040CB=

USA.gov is the U.S. government's official web portal to all federal, state and local government web resources and services.